Time;durP1;ratioP1;P1;durP2;ratioP2;P2;SDS_P1;SDS_P2;PMS_P1;PMS_P2;Temp;Humidity;BMP_temperature;BMP_pressure;BME280_temperature;BME280_humidity;BME280_pressure;Samples;Min_cycle;Max_cycle;Signal;HPM_P1;HPM_P2
2022/11/03 00:01:52;;;;;;;;;;;15.10;99.90;;;;;;5024466;28;19921;-60
2022/11/03 00:04:18;;;;;;;;;;;15.10;99.90;;;;;;5016293;28;19914;-60
2022/11/03 00:09:47;;;;;;;;;;;15.10;99.90;;;;;;5009673;28;19988;-59
2022/11/03 00:12:12;;;;;;;;;;;15.10;99.90;;;;;;5016436;28;19917;-60
2022/11/03 00:17:41;;;;;;;;;;;15.00;99.90;;;;;;5019133;28;19920;-60
2022/11/03 00:20:07;;;;;;;;;;;14.90;99.90;;;;;;5010290;28;20012;-60
2022/11/03 00:28:46;;;;;;;;;;;14.60;99.90;;;;;;5017843;28;20462;-61
2022/11/03 00:31:15;;;;;;;;;;;14.50;99.90;;;;;;5019014;28;19913;-61
2022/11/03 00:33:41;;;;;;;;;;;14.50;99.90;;;;;;5024292;28;19956;-60
2022/11/03 00:36:08;;;;;;;;;;;14.50;99.90;;;;;;5013403;28;19960;-60
2022/11/03 00:38:36;;;;;;;;;;;14.50;99.90;;;;;;5009764;28;19976;-60
2022/11/03 00:41:02;;;;;;;;;;;14.50;99.90;;;;;;5014025;28;19917;-62
2022/11/03 00:43:29;;;;;;;;;;;14.50;99.90;;;;;;5013115;28;20361;-65
2022/11/03 00:45:55;;;;;;;;;;;14.50;99.90;;;;;;5034099;28;19971;-62
2022/11/03 00:51:29;;;;;;;;;;;14.30;99.90;;;;;;5012242;28;19963;-63
2022/11/03 00:54:29;;;;;;;;;;;14.30;99.90;;;;;;5021931;28;19920;-62
2022/11/03 01:12:23;;;;;;;;;;;14.00;99.90;;;;;;5007573;28;19964;-65
2022/11/03 01:14:50;;;;;;;;;;;13.90;99.90;;;;;;5004128;28;19921;-65
2022/11/03 01:17:41;;;;;;;;;;;13.90;99.90;;;;;;5018058;28;20007;-66
2022/11/03 01:20:07;;;;;;;;;;;13.90;99.90;;;;;;5014835;28;20400;-64
2022/11/03 01:22:33;;;;;;;;;;;13.70;99.90;;;;;;5011467;28;19914;-65
2022/11/03 01:24:58;;;;;;;;;;;13.50;99.90;;;;;;5016886;28;20373;-66
2022/11/03 01:27:24;;;;;;;;;;;13.50;99.90;;;;;;5014654;28;20332;-66
2022/11/03 01:29:50;;;;;;;;;;;13.40;99.90;;;;;;5023398;28;20377;-68
2022/11/03 01:32:15;;;;;;;;;;;13.40;99.90;;;;;;5011020;28;19909;-67
2022/11/03 01:34:41;;;;;;;;;;;13.30;99.90;;;;;;5020285;28;19913;-67
2022/11/03 01:37:07;;;;;;;;;;;13.30;99.90;;;;;;5015400;28;20376;-66
2022/11/03 01:39:32;;;;;;;;;;;13.40;99.90;;;;;;5012228;28;20363;-66
2022/11/03 01:41:58;;;;;;;;;;;13.40;99.90;;;;;;5010796;28;19914;-65
2022/11/03 01:44:25;;;;;;;;;;;13.60;99.90;;;;;;5016642;28;19917;-65
2022/11/03 01:47:09;;;;;;;;;;;13.70;99.90;;;;;;5011865;28;19915;-65
2022/11/03 01:49:37;;;;;;;;;;;13.80;99.90;;;;;;5027847;28;19928;-65
2022/11/03 01:52:15;;;;;;;;;;;13.90;99.90;;;;;;5028179;28;19921;-64
2022/11/03 01:54:42;;;;;;;;;;;14.00;99.90;;;;;;5011778;28;19914;-64
2022/11/03 01:57:10;;;;;;;;;;;14.00;99.90;;;;;;5022411;28;19913;-64
2022/11/03 01:59:36;;;;;;;;;;;14.00;99.90;;;;;;5016295;28;19968;-64
2022/11/03 02:02:02;;;;;;;;;;;14.00;99.90;;;;;;5029871;28;19917;-63
2022/11/03 02:04:29;;;;;;;;;;;14.10;99.90;;;;;;5021847;28;19913;-63
2022/11/03 02:07:21;;;;;;;;;;;14.10;99.90;;;;;;5018898;28;19913;-63
2022/11/03 02:09:46;;;;;;;;;;;14.20;99.90;;;;;;5023142;28;19928;-63
2022/11/03 02:12:13;;;;;;;;;;;14.20;99.90;;;;;;5027913;28;19917;-63
2022/11/03 02:14:44;;;;;;;;;;;14.20;99.90;;;;;;5016755;28;19937;-64
2022/11/03 02:17:11;;;;;;;;;;;14.20;99.90;;;;;;5021632;28;19913;-63
2022/11/03 02:19:41;;;;;;;;;;;14.30;99.90;;;;;;5027799;28;19920;-63
2022/11/03 02:22:25;;;;;;;;;;;14.30;99.90;;;;;;5025122;28;19913;-63
2022/11/03 02:24:57;;;;;;;;;;;14.30;99.90;;;;;;5010858;28;20324;-62
2022/11/03 02:27:22;;;;;;;;;;;14.30;99.90;;;;;;5017413;28;20385;-63
2022/11/03 02:29:48;;;;;;;;;;;14.30;99.90;;;;;;5024934;28;19956;-63
2022/11/03 02:32:13;;;;;;;;;;;14.30;99.90;;;;;;5014320;28;20365;-63
2022/11/03 02:40:53;;;;;;;;;;;14.20;99.90;;;;;;5022276;28;19977;-64
2022/11/03 02:49:25;;;;;;;;;;;13.80;99.90;;;;;;5015522;28;19976;-66
2022/11/03 02:52:00;;;;;;;;;;;13.70;99.90;;;;;;5047409;28;19913;-65
2022/11/03 02:54:45;;;;;;;;;;;13.60;99.90;;;;;;5016813;28;19914;-65
2022/11/03 03:09:17;;;;;;;;;;;13.40;99.90;;;;;;5024595;28;19924;-64
2022/11/03 03:11:46;;;;;;;;;;;13.40;99.90;;;;;;5017024;28;19912;-64
2022/11/03 03:14:17;;;;;;;;;;;13.50;99.90;;;;;;4475842;28;19932;-66
2022/11/03 03:16:46;;;;;;;;;;;13.60;99.90;;;;;;5011379;28;19918;-65
2022/11/03 03:19:22;;;;;;;;;;;13.50;99.90;;;;;;5017162;28;20369;-65
2022/11/03 03:22:06;;;;;;;;;;;13.50;99.90;;;;;;5021263;28;19921;-63
2022/11/03 03:28:01;;;;;;;;;;;13.50;99.90;;;;;;5012276;28;19981;-63
2022/11/03 03:33:36;;;;;;;;;;;13.10;99.90;;;;;;5026045;28;19920;-63
2022/11/03 03:39:07;;;;;;;;;;;12.60;99.90;;;;;;5023552;28;20051;-69
2022/11/03 03:41:34;;;;;;;;;;;12.70;99.90;;;;;;5023921;28;19913;-70
2022/11/03 03:44:01;;;;;;;;;;;12.90;99.90;;;;;;5028822;28;19920;-68
2022/11/03 03:46:30;;;;;;;;;;;13.00;99.90;;;;;;5019213;28;19914;-69
2022/11/03 03:48:56;;;;;;;;;;;12.90;99.90;;;;;;5015632;28;19928;-66
2022/11/03 03:51:23;;;;;;;;;;;12.70;99.90;;;;;;5017104;28;19913;-63
2022/11/03 03:53:52;;;;;;;;;;;12.60;99.90;;;;;;5019566;28;20349;-66
2022/11/03 03:56:49;;;;;;;;;;;12.40;99.90;;;;;;5012246;28;19928;-62
2022/11/03 04:02:24;;;;;;;;;;;12.20;99.90;;;;;;5014304;28;20333;-65
2022/11/03 04:28:28;;;;;;;;;;;13.30;99.90;;;;;;5019012;28;19920;-69
2022/11/03 04:30:58;;;;;;;;;;;13.40;99.90;;;;;;5017070;28;19917;-68
2022/11/03 04:33:42;;;;;;;;;;;13.40;99.90;;;;;;5023196;28;19913;-68
2022/11/03 04:36:17;;;;;;;;;;;13.40;99.90;;;;;;5011499;28;19920;-67
2022/11/03 04:38:43;;;;;;;;;;;13.50;99.90;;;;;;5008681;28;19999;-67
2022/11/03 04:41:14;;;;;;;;;;;13.60;99.90;;;;;;5012797;28;19913;-66
2022/11/03 04:43:39;;;;;;;;;;;13.60;99.90;;;;;;5009456;28;19913;-66
2022/11/03 04:46:08;;;;;;;;;;;13.70;99.90;;;;;;5029327;28;19983;-66
2022/11/03 04:48:33;;;;;;;;;;;13.60;99.90;;;;;;5026125;28;19913;-66
2022/11/03 04:51:01;;;;;;;;;;;13.60;99.90;;;;;;5012756;28;19975;-65
2022/11/03 04:53:28;;;;;;;;;;;13.60;99.90;;;;;;5018120;28;19920;-66
2022/11/03 04:55:54;;;;;;;;;;;13.60;99.90;;;;;;5021915;28;19999;-65
2022/11/03 04:58:25;;;;;;;;;;;13.60;99.90;;;;;;5026909;28;19972;-65
2022/11/03 05:00:55;;;;;;;;;;;13.60;99.90;;;;;;5020442;28;19937;-65
2022/11/03 05:03:22;;;;;;;;;;;13.60;99.90;;;;;;5013042;28;19920;-64
2022/11/03 05:05:57;;;;;;;;;;;13.70;99.90;;;;;;5025244;28;19935;-66
2022/11/03 05:08:23;;;;;;;;;;;13.70;99.90;;;;;;5007476;28;19917;-67
2022/11/03 05:10:49;;;;;;;;;;;13.70;99.90;;;;;;5013260;28;19922;-66
2022/11/03 05:13:20;;;;;;;;;;;13.70;99.90;;;;;;5004634;28;19922;-66
2022/11/03 05:15:46;;;;;;;;;;;13.70;99.90;;;;;;5014711;28;20333;-65
2022/11/03 05:18:18;;;;;;;;;;;13.70;99.90;;;;;;5008518;28;19952;-63
2022/11/03 05:21:01;;;;;;;;;;;13.80;99.90;;;;;;5019022;28;19952;-65
2022/11/03 05:23:28;;;;;;;;;;;13.80;99.90;;;;;;5002778;28;19975;-65
2022/11/03 05:25:55;;;;;;;;;;;13.80;99.90;;;;;;5011222;28;19960;-63
2022/11/03 05:28:20;;;;;;;;;;;13.80;99.90;;;;;;5008747;28;19924;-65
2022/11/03 05:36:59;;;;;;;;;;;13.80;99.90;;;;;;5013127;28;20381;-68
2022/11/03 05:42:32;;;;;;;;;;;13.70;99.90;;;;;;4965265;28;20268;-68
2022/11/03 05:45:13;;;;;;;;;;;13.50;99.90;;;;;;4968249;28;19921;-68
2022/11/03 05:47:41;;;;;;;;;;;13.40;99.90;;;;;;4963544;28;20365;-69
2022/11/03 05:50:15;;;;;;;;;;;13.40;99.90;;;;;;4967294;28;19961;-68
2022/11/03 05:52:42;;;;;;;;;;;13.30;99.90;;;;;;4966804;28;20021;-67
2022/11/03 05:55:30;;;;;;;;;;;13.20;99.90;;;;;;4973538;28;19965;-64
2022/11/03 06:01:01;;;;;;;;;;;13.10;99.90;;;;;;4974913;28;19921;-64
2022/11/03 06:03:28;;;;;;;;;;;13.10;99.90;;;;;;4975761;28;19942;-66
2022/11/03 06:05:54;;;;;;;;;;;12.90;99.90;;;;;;4968826;28;19918;-68
2022/11/03 06:08:21;;;;;;;;;;;12.80;99.90;;;;;;4969652;28;20226;-69
2022/11/03 06:11:02;;;;;;;;;;;12.80;99.90;;;;;;4961691;28;19957;-69
2022/11/03 06:13:36;;;;;;;;;;;12.80;99.90;;;;;;4968141;28;19920;-69
2022/11/03 06:16:05;;;;;;;;;;;13.00;99.90;;;;;;4969233;28;19936;-69
2022/11/03 06:21:42;;;;;;;;;;;13.20;99.90;;;;;;5006355;28;20312;-68
2022/11/03 06:30:23;;;;;;;;;;;13.20;99.90;;;;;;5018891;28;19928;-67
2022/11/03 06:32:49;;;;;;;;;;;13.10;99.90;;;;;;5017782;28;19917;-69
2022/11/03 06:35:15;;;;;;;;;;;13.00;99.90;;;;;;5024363;28;19920;-68
2022/11/03 06:37:41;;;;;;;;;;;12.90;99.90;;;;;;5024102;28;19921;-68
2022/11/03 06:40:09;;;;;;;;;;;12.90;99.90;;;;;;5025274;28;19914;-67
2022/11/03 06:42:36;;;;;;;;;;;12.80;99.90;;;;;;5022745;28;19913;-67
2022/11/03 06:45:11;;;;;;;;;;;12.80;99.90;;;;;;5008712;28;19913;-67
2022/11/03 06:47:39;;;;;;;;;;;12.90;99.90;;;;;;5015428;28;20377;-68
2022/11/03 06:50:17;;;;;;;;;;;12.90;99.90;;;;;;5020643;28;20019;-67
2022/11/03 06:52:46;;;;;;;;;;;12.70;99.90;;;;;;5007091;28;19921;-68
2022/11/03 06:55:12;;;;;;;;;;;12.50;99.90;;;;;;5013460;28;20285;-66
2022/11/03 06:57:39;;;;;;;;;;;12.40;99.90;;;;;;5022955;28;19917;-66
2022/11/03 07:00:16;;;;;;;;;;;12.10;99.90;;;;;;5012578;28;19913;-65
2022/11/03 07:02:49;;;;;;;;;;;11.90;99.90;;;;;;5011139;28;19924;-64
2022/11/03 07:05:22;;;;;;;;;;;11.60;99.90;;;;;;5012191;28;20013;-63
2022/11/03 07:07:49;;;;;;;;;;;11.70;99.90;;;;;;5017496;28;19913;-69
2022/11/03 07:10:15;;;;;;;;;;;11.60;99.90;;;;;;5011311;28;19928;-67
2022/11/03 07:12:41;;;;;;;;;;;11.70;99.90;;;;;;5017717;28;19913;-63
2022/11/03 07:15:19;;;;;;;;;;;11.70;99.90;;;;;;5015945;28;19937;-66
2022/11/03 07:17:45;;;;;;;;;;;11.60;99.90;;;;;;5003703;28;19976;-65
2022/11/03 07:20:29;;;;;;;;;;;11.50;99.90;;;;;;5021890;28;20250;-63
2022/11/03 07:22:56;;;;;;;;;;;11.30;99.90;;;;;;5017302;28;19913;-65
2022/11/03 07:25:21;;;;;;;;;;;11.30;99.90;;;;;;5015913;28;20012;-70
2022/11/03 07:27:49;;;;;;;;;;;11.30;99.90;;;;;;5016157;28;20003;-68
2022/11/03 07:30:14;;;;;;;;;;;11.20;99.90;;;;;;5021025;28;19956;-67
2022/11/03 07:32:40;;;;;;;;;;;11.30;99.90;;;;;;5016577;28;19979;-67
2022/11/03 07:35:18;;;;;;;;;;;11.30;99.90;;;;;;5013421;28;20285;-67
2022/11/03 07:37:44;;;;;;;;;;;11.30;99.90;;;;;;5001010;28;19917;-69
2022/11/03 07:40:17;;;;;;;;;;;11.30;99.90;;;;;;5019188;28;19952;-69
2022/11/03 07:42:43;;;;;;;;;;;11.40;99.90;;;;;;5020187;28;19921;-72
2022/11/03 07:45:27;;;;;;;;;;;11.30;99.90;;;;;;5016208;28;19913;-71
2022/11/03 07:47:53;;;;;;;;;;;11.40;99.90;;;;;;5030082;28;19921;-72
2022/11/03 07:50:19;;;;;;;;;;;11.40;99.90;;;;;;5027196;28;19921;-71
2022/11/03 07:52:45;;;;;;;;;;;11.40;99.90;;;;;;5017177;28;19914;-72
2022/11/03 07:55:12;;;;;;;;;;;11.40;99.90;;;;;;5051367;28;19923;-71
2022/11/03 07:57:38;;;;;;;;;;;11.40;99.90;;;;;;5020600;28;19914;-71
2022/11/03 08:00:08;;;;;;;;;;;11.40;99.90;;;;;;5018344;28;19967;-71
2022/11/03 08:02:46;;;;;;;;;;;11.40;99.90;;;;;;5022586;28;19940;-71
2022/11/03 08:05:12;;;;;;;;;;;11.50;99.90;;;;;;5017152;28;19913;-69
2022/11/03 08:07:38;;;;;;;;;;;11.40;99.90;;;;;;5011339;28;19953;-70
2022/11/03 08:10:05;;;;;;;;;;;11.40;99.90;;;;;;5009945;28;19957;-70
2022/11/03 08:12:31;;;;;;;;;;;11.40;99.90;;;;;;5009488;28;19917;-72
2022/11/03 08:14:56;;;;;;;;;;;11.40;99.90;;;;;;5007771;28;20027;-71
2022/11/03 08:17:22;;;;;;;;;;;11.40;99.90;;;;;;5009613;28;20013;-71
2022/11/03 08:19:48;;;;;;;;;;;11.30;99.90;;;;;;5019555;28;19960;-69
2022/11/03 08:22:13;;;;;;;;;;;11.30;99.90;;;;;;5014225;28;20369;-68
2022/11/03 08:24:39;;;;;;;;;;;11.30;99.90;;;;;;5007710;28;20009;-68
2022/11/03 08:27:04;;;;;;;;;;;11.40;99.90;;;;;;5011460;28;19917;-67
2022/11/03 08:29:32;;;;;;;;;;;11.40;99.90;;;;;;5015833;28;19921;-69
2022/11/03 08:31:58;;;;;;;;;;;11.50;99.90;;;;;;5009795;28;20304;-69
2022/11/03 08:34:23;;;;;;;;;;;11.40;99.90;;;;;;5014688;28;19913;-71
2022/11/03 08:36:49;;;;;;;;;;;11.50;99.90;;;;;;5015320;28;19913;-69
2022/11/03 08:39:15;;;;;;;;;;;11.50;99.90;;;;;;5007431;28;19913;-68
2022/11/03 08:41:41;;;;;;;;;;;11.40;99.90;;;;;;5020834;28;19990;-68
2022/11/03 08:44:06;;;;;;;;;;;11.40;99.90;;;;;;5010020;28;19997;-70
2022/11/03 08:46:32;;;;;;;;;;;11.50;99.90;;;;;;5017721;28;19949;-71
2022/11/03 08:48:57;;;;;;;;;;;11.50;99.90;;;;;;5018050;28;19924;-69
2022/11/03 08:51:23;;;;;;;;;;;11.50;99.90;;;;;;5018001;28;19922;-74
2022/11/03 08:53:52;;;;;;;;;;;11.50;99.90;;;;;;5010049;28;19968;-73
2022/11/03 08:56:19;;;;;;;;;;;11.60;99.90;;;;;;5007289;28;19914;-74
2022/11/03 08:58:45;;;;;;;;;;;11.60;99.90;;;;;;5012581;28;20385;-72
2022/11/03 09:01:11;;;;;;;;;;;11.60;99.90;;;;;;5015057;28;19956;-73
2022/11/03 09:03:37;;;;;;;;;;;11.60;99.90;;;;;;5005118;28;19917;-72
2022/11/03 09:06:02;;;;;;;;;;;11.60;99.90;;;;;;5009127;28;19918;-71
2022/11/03 09:08:28;;;;;;;;;;;11.70;99.90;;;;;;5006005;28;19949;-70
2022/11/03 09:10:53;;;;;;;;;;;11.70;99.90;;;;;;5009504;28;20392;-69
2022/11/03 09:13:19;;;;;;;;;;;11.80;99.90;;;;;;5004840;28;20392;-70
2022/11/03 09:15:44;;;;;;;;;;;11.90;99.90;;;;;;5009358;28;19983;-69
2022/11/03 09:18:10;;;;;;;;;;;11.90;99.90;;;;;;5002623;28;19987;-69
2022/11/03 09:20:36;;;;;;;;;;;12.00;99.90;;;;;;5006621;28;20063;-70
2022/11/03 09:23:02;;;;;;;;;;;11.90;99.90;;;;;;5005430;28;19913;-68
2022/11/03 09:25:27;;;;;;;;;;;12.10;99.90;;;;;;5003028;28;19921;-67
2022/11/03 09:27:56;;;;;;;;;;;11.90;99.90;;;;;;5037068;28;19929;-71
2022/11/03 09:30:22;;;;;;;;;;;11.90;99.90;;;;;;5007063;28;19922;-71
2022/11/03 09:32:47;;;;;;;;;;;11.90;99.90;;;;;;5009322;28;19925;-71
2022/11/03 09:35:13;;;;;;;;;;;11.90;99.90;;;;;;5005508;28;19926;-71
2022/11/03 09:37:39;;;;;;;;;;;11.90;99.90;;;;;;5003289;28;19913;-69
2022/11/03 09:40:06;;;;;;;;;;;11.90;99.90;;;;;;5004786;28;19914;-70
2022/11/03 09:42:33;;;;;;;;;;;12.00;99.90;;;;;;4997359;28;20284;-69
2022/11/03 09:44:59;;;;;;;;;;;12.00;99.90;;;;;;5004435;28;20011;-69
2022/11/03 09:47:32;;;;;;;;;;;12.00;99.90;;;;;;5003266;28;20012;-69
2022/11/03 09:49:58;;;;;;;;;;;12.00;99.90;;;;;;5004355;28;19929;-69
2022/11/03 09:52:24;;;;;;;;;;;12.00;99.90;;;;;;4999079;28;19925;-71
2022/11/03 09:54:51;;;;;;;;;;;11.90;99.90;;;;;;5008242;28;20012;-70
2022/11/03 09:57:17;;;;;;;;;;;11.90;99.90;;;;;;4996684;28;20374;-72
2022/11/03 09:59:43;;;;;;;;;;;11.90;99.90;;;;;;5008258;28;19935;-70
2022/11/03 10:02:18;;;;;;;;;;;11.90;99.90;;;;;;4998609;28;20016;-71
2022/11/03 10:04:44;;;;;;;;;;;11.90;99.90;;;;;;5003572;28;19995;-71
2022/11/03 10:07:09;;;;;;;;;;;11.90;99.90;;;;;;5002403;28;19944;-71
2022/11/03 10:09:37;;;;;;;;;;;11.90;99.90;;;;;;5004799;28;20359;-70
2022/11/03 10:12:03;;;;;;;;;;;12.00;99.90;;;;;;5011333;28;19918;-69
2022/11/03 10:14:28;;;;;;;;;;;11.80;99.90;;;;;;5004117;28;19975;-69
2022/11/03 10:16:55;;;;;;;;;;;11.70;99.90;;;;;;5010778;28;19935;-70
2022/11/03 10:19:22;;;;;;;;;;;11.50;99.90;;;;;;5007674;28;19914;-71
2022/11/03 10:21:49;;;;;;;;;;;11.50;99.90;;;;;;5003550;28;19932;-72
2022/11/03 10:24:15;;;;;;;;;;;11.50;99.90;;;;;;5005525;28;19984;-71
2022/11/03 10:26:42;;;;;;;;;;;11.40;99.90;;;;;;5003213;28;20293;-68
2022/11/03 10:29:15;;;;;;;;;;;11.40;99.90;;;;;;5004709;28;19926;-68
2022/11/03 10:31:40;;;;;;;;;;;11.40;99.90;;;;;;5008016;28;20427;-69
2022/11/03 10:34:25;;;;;;;;;;;11.40;99.90;;;;;;5008877;28;19921;-68
2022/11/03 10:37:08;;;;;;;;;;;11.50;99.90;;;;;;5005336;28;19941;-69
2022/11/03 10:39:34;;;;;;;;;;;11.50;99.90;;;;;;5010020;28;19917;-67
2022/11/03 10:41:59;;;;;;;;;;;11.50;99.90;;;;;;5011858;28;19921;-66
2022/11/03 10:44:26;;;;;;;;;;;11.50;99.90;;;;;;5037952;28;19960;-66
2022/11/03 10:46:56;;;;;;;;;;;11.50;99.90;;;;;;5002135;28;19913;-66
2022/11/03 10:49:22;;;;;;;;;;;11.70;99.90;;;;;;5001705;28;19924;-65
2022/11/03 10:51:52;;;;;;;;;;;11.70;99.90;;;;;;5002750;28;20001;-66
2022/11/03 10:54:20;;;;;;;;;;;11.70;99.90;;;;;;5004920;28;20315;-65
2022/11/03 10:56:46;;;;;;;;;;;11.70;99.90;;;;;;5009653;28;19913;-65
2022/11/03 10:59:18;;;;;;;;;;;11.60;99.90;;;;;;5003295;28;19918;-65
2022/11/03 11:01:44;;;;;;;;;;;11.60;99.90;;;;;;5003068;28;20361;-63
2022/11/03 11:04:19;;;;;;;;;;;11.70;99.90;;;;;;5007529;28;19917;-64
2022/11/03 11:06:45;;;;;;;;;;;11.70;99.90;;;;;;5004522;28;19921;-64
2022/11/03 11:09:13;;;;;;;;;;;11.80;99.90;;;;;;5005368;28;19921;-64
2022/11/03 11:11:38;;;;;;;;;;;11.80;99.90;;;;;;5004093;28;20440;-63
2022/11/03 11:14:22;;;;;;;;;;;11.80;99.90;;;;;;5003602;28;20028;-63
2022/11/03 11:16:50;;;;;;;;;;;11.80;99.90;;;;;;5028079;28;19971;-62
2022/11/03 11:19:16;;;;;;;;;;;11.90;99.90;;;;;;4999557;28;20262;-62
2022/11/03 11:21:41;;;;;;;;;;;12.00;99.90;;;;;;5008063;28;20020;-63
2022/11/03 11:24:10;;;;;;;;;;;12.00;99.90;;;;;;5005268;28;19991;-62
2022/11/03 11:26:36;;;;;;;;;;;12.00;99.90;;;;;;5007597;28;19925;-62
2022/11/03 11:29:12;;;;;;;;;;;12.00;99.90;;;;;;5009306;28;19935;-63
2022/11/03 11:31:38;;;;;;;;;;;12.10;99.90;;;;;;5000598;28;20012;-63
2022/11/03 11:34:11;;;;;;;;;;;12.20;99.90;;;;;;5005166;28;19981;-63
2022/11/03 11:36:36;;;;;;;;;;;12.20;99.90;;;;;;4997290;28;19913;-62
2022/11/03 11:39:03;;;;;;;;;;;12.20;99.90;;;;;;5001814;28;19921;-62
2022/11/03 11:41:47;;;;;;;;;;;12.20;99.90;;;;;;5003630;28;19914;-62
2022/11/03 11:44:31;;;;;;;;;;;12.20;99.90;;;;;;5010773;28;20365;-62
2022/11/03 11:46:57;;;;;;;;;;;12.20;99.90;;;;;;5035535;28;20292;-63
2022/11/03 11:49:23;;;;;;;;;;;12.30;99.90;;;;;;5001176;28;19930;-63
2022/11/03 11:51:48;;;;;;;;;;;12.20;99.90;;;;;;5000865;28;19976;-63
2022/11/03 11:54:16;;;;;;;;;;;12.20;99.90;;;;;;5009962;28;19917;-62
2022/11/03 11:56:43;;;;;;;;;;;12.30;99.90;;;;;;5009675;28;19948;-63
2022/11/03 11:59:18;;;;;;;;;;;12.20;99.90;;;;;;5003044;28;19924;-62
2022/11/03 12:01:47;;;;;;;;;;;12.30;99.90;;;;;;5006590;28;20369;-62
2022/11/03 12:04:16;;;;;;;;;;;12.40;99.90;;;;;;5006359;28;19913;-62
2022/11/03 12:06:42;;;;;;;;;;;12.50;99.90;;;;;;5000667;28;19924;-62
2022/11/03 12:09:27;;;;;;;;;;;12.50;99.90;;;;;;5010466;28;19921;-63
2022/11/03 12:11:54;;;;;;;;;;;12.50;99.90;;;;;;5002862;28;19925;-63
2022/11/03 12:14:20;;;;;;;;;;;12.40;99.90;;;;;;5008214;28;19936;-62
2022/11/03 12:16:45;;;;;;;;;;;12.40;99.90;;;;;;5011314;28;19917;-65
2022/11/03 12:19:43;;;;;;;;;;;12.50;99.90;;;;;;4998984;28;19977;-62
2022/11/03 12:22:10;;;;;;;;;;;12.60;99.90;;;;;;5002914;28;19929;-62
2022/11/03 12:24:37;;;;;;;;;;;12.60;99.90;;;;;;5004036;28;19925;-66
2022/11/03 12:27:15;;;;;;;;;;;12.60;99.90;;;;;;5006722;28;19920;-63
2022/11/03 12:29:40;;;;;;;;;;;12.70;99.90;;;;;;5001419;28;20024;-63
2022/11/03 12:32:06;;;;;;;;;;;12.80;99.90;;;;;;5011461;28;20000;-63
2022/11/03 12:34:31;;;;;;;;;;;12.90;99.90;;;;;;5002073;28;19955;-63
2022/11/03 12:36:57;;;;;;;;;;;12.90;99.90;;;;;;5004422;28;19917;-63
2022/11/03 12:39:22;;;;;;;;;;;12.90;99.90;;;;;;4999820;28;19913;-62
2022/11/03 12:41:48;;;;;;;;;;;12.90;99.90;;;;;;5007375;28;19914;-63
2022/11/03 12:44:13;;;;;;;;;;;12.80;99.90;;;;;;4993974;28;19914;-63
2022/11/03 12:46:39;;;;;;;;;;;12.60;99.90;;;;;;5010876;28;19913;-63
2022/11/03 12:49:04;;;;;;;;;;;12.60;99.90;;;;;;5002390;28;19913;-62
2022/11/03 12:51:30;;;;;;;;;;;12.60;99.90;;;;;;5003815;28;19913;-61
2022/11/03 12:53:56;;;;;;;;;;;12.60;99.90;;;;;;4998959;28;19940;-61
2022/11/03 12:56:21;;;;;;;;;;;12.50;99.90;;;;;;4993294;28;19914;-61
2022/11/03 12:58:47;;;;;;;;;;;12.60;99.90;;;;;;5035083;28;19917;-61
2022/11/03 13:01:13;;;;;;;;;;;12.60;99.90;;;;;;5011278;28;19959;-61
2022/11/03 13:03:39;;;;;;;;;;;12.70;99.90;;;;;;5004601;28;20011;-61
2022/11/03 13:06:08;;;;;;;;;;;12.70;99.90;;;;;;5005308;28;19924;-61
2022/11/03 13:08:34;;;;;;;;;;;12.70;99.90;;;;;;5004307;28;21305;-61
2022/11/03 13:11:00;;;;;;;;;;;12.70;99.90;;;;;;5001520;28;19928;-62
2022/11/03 13:13:25;;;;;;;;;;;12.70;99.90;;;;;;4996935;28;19914;-64
2022/11/03 13:15:54;;;;;;;;;;;12.70;99.90;;;;;;5000978;28;19928;-64
2022/11/03 13:18:21;;;;;;;;;;;12.80;99.90;;;;;;5006749;28;19914;-64
2022/11/03 13:20:46;;;;;;;;;;;12.70;99.90;;;;;;5007831;28;19923;-64
2022/11/03 13:23:12;;;;;;;;;;;12.60;99.90;;;;;;5003153;28;20000;-63
2022/11/03 13:25:38;;;;;;;;;;;12.60;99.90;;;;;;5007953;28;19921;-63
2022/11/03 13:28:04;;;;;;;;;;;12.30;99.90;;;;;;5009170;28;19922;-63
2022/11/03 13:30:32;;;;;;;;;;;12.30;99.90;;;;;;5001790;28;20019;-63
2022/11/03 13:32:58;;;;;;;;;;;12.20;99.90;;;;;;5008797;28;20292;-63
2022/11/03 13:35:24;;;;;;;;;;;12.00;99.90;;;;;;5007676;28;20008;-64
2022/11/03 13:37:50;;;;;;;;;;;12.10;99.90;;;;;;5006160;28;19923;-62
2022/11/03 13:40:16;;;;;;;;;;;12.00;99.90;;;;;;5008503;28;20037;-63
2022/11/03 13:42:42;;;;;;;;;;;11.90;99.90;;;;;;5008771;28;19913;-61
2022/11/03 13:45:08;;;;;;;;;;;11.90;99.90;;;;;;5016999;28;19967;-62
2022/11/03 13:47:33;;;;;;;;;;;11.80;99.90;;;;;;5013269;28;20055;-62
2022/11/03 13:49:59;;;;;;;;;;;11.80;99.90;;;;;;5007071;28;19945;-63
2022/11/03 13:52:28;;;;;;;;;;;11.70;99.90;;;;;;5011644;28;19913;-63
2022/11/03 13:54:54;;;;;;;;;;;11.70;99.90;;;;;;5011607;28;19914;-63
2022/11/03 13:57:20;;;;;;;;;;;11.70;99.90;;;;;;5013014;28;19937;-63
2022/11/03 13:59:45;;;;;;;;;;;11.60;99.90;;;;;;5009288;28;19943;-63
2022/11/03 14:02:11;;;;;;;;;;;11.60;99.90;;;;;;5012193;28;20377;-64
2022/11/03 14:07:47;;;;;;;;;;;11.40;99.90;;;;;;5004981;28;19967;-67
2022/11/03 14:10:12;;;;;;;;;;;11.40;99.90;;;;;;5011100;28;19921;-66
2022/11/03 14:12:38;;;;;;;;;;;11.50;99.90;;;;;;5042834;28;20285;-66
2022/11/03 14:15:07;;;;;;;;;;;11.40;99.90;;;;;;5014059;28;19931;-65
2022/11/03 14:17:36;;;;;;;;;;;11.50;99.90;;;;;;5014341;28;19913;-65
2022/11/03 14:20:02;;;;;;;;;;;11.50;99.90;;;;;;5010017;28;19968;-65
2022/11/03 14:22:29;;;;;;;;;;;11.40;99.90;;;;;;5015382;28;20289;-65
2022/11/03 14:24:55;;;;;;;;;;;11.40;99.90;;;;;;5006231;28;20362;-64
2022/11/03 14:27:23;;;;;;;;;;;11.50;99.90;;;;;;5010503;28;19976;-66
2022/11/03 14:29:49;;;;;;;;;;;11.50;99.90;;;;;;5011721;28;19929;-64
2022/11/03 14:32:15;;;;;;;;;;;11.50;99.90;;;;;;5010363;28;19984;-64
2022/11/03 14:34:42;;;;;;;;;;;11.70;99.90;;;;;;5011094;28;19920;-64
2022/11/03 14:37:08;;;;;;;;;;;12.60;99.90;;;;;;5011807;28;19914;-63
2022/11/03 14:39:35;;;;;;;;;;;13.40;99.90;;;;;;5024776;28;19983;-63
2022/11/03 14:42:03;;;;;;;;;;;13.40;99.90;;;;;;5010771;28;19918;-62
2022/11/03 14:44:33;;;;;;;;;;;13.20;99.90;;;;;;5016245;28;20345;-62
2022/11/03 14:47:00;;;;;;;;;;;13.20;99.90;;;;;;5013399;28;19937;-62
2022/11/03 14:49:26;;;;;;;;;;;13.90;99.90;;;;;;5012811;28;19922;-63
2022/11/03 14:51:52;;;;;;;;;;;14.70;99.90;;;;;;5011168;28;19991;-64
2022/11/03 14:54:17;;;;;;;;;;;15.50;99.90;;;;;;5012108;28;20395;-62
2022/11/03 14:56:43;;;;;;;;;;;16.70;99.90;;;;;;5010048;28;19913;-62
2022/11/03 14:59:09;;;;;;;;;;;17.10;99.90;;;;;;5011929;28;19921;-61
2022/11/03 15:01:36;;;;;;;;;;;17.30;99.90;;;;;;5008230;28;19940;-62
2022/11/03 15:04:02;;;;;;;;;;;17.60;99.90;;;;;;5007354;28;19920;-63
2022/11/03 15:06:28;;;;;;;;;;;17.40;99.90;;;;;;5009554;28;19921;-62
2022/11/03 15:08:54;;;;;;;;;;;17.50;99.90;;;;;;5013039;28;19921;-62
2022/11/03 15:11:19;;;;;;;;;;;17.50;99.90;;;;;;5015995;28;20336;-62
2022/11/03 15:13:45;;;;;;;;;;;17.50;99.90;;;;;;5010075;28;19957;-62
2022/11/03 15:16:10;;;;;;;;;;;17.00;99.90;;;;;;5011843;28;19940;-62
2022/11/03 15:18:36;;;;;;;;;;;15.30;99.90;;;;;;5008422;28;19925;-61
2022/11/03 15:21:01;;;;;;;;;;;14.20;99.90;;;;;;5014506;28;19913;-62
2022/11/03 15:23:27;;;;;;;;;;;13.20;99.90;;;;;;5012117;28;19914;-62
2022/11/03 15:25:53;;;;;;;;;;;12.70;99.90;;;;;;5016055;28;20380;-62
2022/11/03 15:28:20;;;;;;;;;;;12.10;99.90;;;;;;5004104;28;20384;-62
2022/11/03 15:30:46;;;;;;;;;;;11.90;99.90;;;;;;5011084;28;20019;-62
2022/11/03 15:33:12;;;;;;;;;;;11.70;99.90;;;;;;5008984;28;19925;-61
2022/11/03 15:35:37;;;;;;;;;;;11.80;99.90;;;;;;5009084;28;20000;-60
2022/11/03 15:38:03;;;;;;;;;;;11.90;99.90;;;;;;5010516;28;19921;-60
2022/11/03 15:40:28;;;;;;;;;;;11.70;99.90;;;;;;5012490;28;19913;-61
2022/11/03 15:42:54;;;;;;;;;;;11.50;99.90;;;;;;5013430;28;19917;-63
2022/11/03 15:45:19;;;;;;;;;;;11.40;99.90;;;;;;5010229;28;20385;-61
2022/11/03 15:47:45;;;;;;;;;;;11.20;99.90;;;;;;5008529;28;19929;-62
2022/11/03 15:50:11;;;;;;;;;;;11.10;99.90;;;;;;5009505;28;20382;-61
2022/11/03 15:52:37;;;;;;;;;;;10.90;99.90;;;;;;5012382;28;19969;-61
2022/11/03 15:55:03;;;;;;;;;;;10.70;99.90;;;;;;5011040;28;19921;-62
2022/11/03 15:57:29;;;;;;;;;;;10.70;99.90;;;;;;5013125;28;19967;-62
2022/11/03 15:59:54;;;;;;;;;;;10.70;99.90;;;;;;5010593;28;19926;-62
2022/11/03 16:02:20;;;;;;;;;;;10.60;99.90;;;;;;5007868;28;19920;-62
2022/11/03 16:04:45;;;;;;;;;;;10.50;99.90;;;;;;5010620;28;19920;-61
2022/11/03 16:07:11;;;;;;;;;;;10.50;99.90;;;;;;5005924;28;19913;-62
2022/11/03 16:09:36;;;;;;;;;;;10.40;99.90;;;;;;5004650;28;19929;-61
2022/11/03 16:12:02;;;;;;;;;;;10.40;99.90;;;;;;5011086;28;19917;-61
2022/11/03 16:14:29;;;;;;;;;;;10.40;99.90;;;;;;5001860;28;20371;-61
2022/11/03 16:16:56;;;;;;;;;;;10.30;99.90;;;;;;5008379;28;19932;-61
2022/11/03 16:19:21;;;;;;;;;;;10.20;99.90;;;;;;5009360;28;19914;-60